createdAt,value
2017-02-07T00:00:14.739Z,100653
2017-02-07T00:01:15.361Z,100650
2017-02-07T00:02:14.864Z,100655
2017-02-07T00:03:15.418Z,100656
2017-02-07T00:04:15.824Z,100653
2017-02-07T00:05:14.967Z,100655
2017-02-07T00:06:15.515Z,100653
2017-02-07T00:07:15.055Z,100652
2017-02-07T00:08:15.644Z,100649
2017-02-07T00:09:15.671Z,100643
2017-02-07T00:10:15.544Z,100639
2017-02-07T00:11:15.707Z,100645
2017-02-07T00:12:15.165Z,100647
2017-02-07T00:13:15.189Z,100645
2017-02-07T00:14:15.282Z,100647
2017-02-07T00:15:16.483Z,100641
2017-02-07T00:16:16.094Z,100645
2017-02-07T00:17:15.399Z,100641
2017-02-07T00:18:15.926Z,100643
2017-02-07T00:19:15.419Z,100641
2017-02-07T00:20:15.992Z,100641
2017-02-07T00:21:16.075Z,100643
2017-02-07T00:22:15.934Z,100645
2017-02-07T00:23:15.575Z,100645
2017-02-07T00:24:16.248Z,100640
2017-02-07T00:25:15.764Z,100641
2017-02-07T00:26:16.316Z,100641
2017-02-07T00:27:15.826Z,100642
2017-02-07T00:28:16.659Z,100640
2017-02-07T00:29:15.933Z,100631
2017-02-07T00:30:16.493Z,100636
2017-02-07T00:31:16.506Z,100638
2017-02-07T00:32:16.021Z,100633
2017-02-07T00:33:16.514Z,100635
2017-02-07T00:34:16.288Z,100633
2017-02-07T00:35:16.067Z,100631
2017-02-07T00:36:16.127Z,100635
2017-02-07T00:37:16.169Z,100641
2017-02-07T00:38:16.212Z,100638
2017-02-07T00:39:16.786Z,100638
2017-02-07T00:40:16.668Z,100639
2017-02-07T00:41:16.413Z,100635
2017-02-07T00:42:16.458Z,100641
2017-02-07T00:43:16.504Z,100632
2017-02-07T00:44:16.536Z,100635
2017-02-07T00:45:16.538Z,100636
2017-02-07T00:46:16.901Z,100635
2017-02-07T00:47:16.608Z,100640
2017-02-07T00:48:17.156Z,100640
2017-02-07T00:49:16.684Z,100638
2017-02-07T00:50:17.182Z,100635
2017-02-07T00:51:16.746Z,100637
2017-02-07T00:52:17.665Z,100636
2017-02-07T00:53:17.428Z,100631
2017-02-07T00:54:17.438Z,100636
2017-02-07T00:55:17.470Z,100635
2017-02-07T00:56:16.970Z,100634
2017-02-07T00:57:17.581Z,100642
2017-02-07T00:58:17.453Z,100639
2017-02-07T00:59:17.684Z,100639
2017-02-07T01:00:17.172Z,100639
2017-02-07T01:01:17.797Z,100639
2017-02-07T01:02:17.870Z,100637
2017-02-07T01:03:17.965Z,100638
2017-02-07T01:04:17.750Z,100636
2017-02-07T01:05:17.987Z,100628
2017-02-07T01:06:17.580Z,100623
2017-02-07T01:07:18.198Z,100634
2017-02-07T01:08:18.190Z,100630
2017-02-07T01:09:17.727Z,100626
2017-02-07T01:10:17.985Z,100636
2017-02-07T01:11:18.289Z,100635
2017-02-07T01:14:06.148Z,100641
2017-02-07T01:15:06.164Z,100645
2017-02-07T01:16:07.061Z,100641
2017-02-07T01:17:06.322Z,100643
2017-02-07T01:18:06.324Z,100640
2017-02-07T01:19:06.909Z,100639
2017-02-07T01:20:06.901Z,100636
2017-02-07T01:21:06.453Z,100642
2017-02-07T01:22:06.686Z,100645
2017-02-07T01:23:06.493Z,100643
2017-02-07T01:24:07.084Z,100646
2017-02-07T01:25:07.160Z,100641
2017-02-07T01:26:07.218Z,100638
2017-02-07T01:27:07.312Z,100629
2017-02-07T01:28:07.630Z,100627
2017-02-07T01:29:07.403Z,100623
2017-02-07T01:30:07.464Z,100625
2017-02-07T01:31:06.989Z,100615
2017-02-07T01:32:07.023Z,100621
2017-02-07T01:33:07.601Z,100617
2017-02-07T01:34:07.978Z,100622
2017-02-07T01:35:07.198Z,100618
2017-02-07T01:36:07.274Z,100613
2017-02-07T01:37:07.809Z,100619
2017-02-07T01:38:07.304Z,100612
2017-02-07T01:39:07.925Z,100613
2017-02-07T01:40:07.871Z,100615
2017-02-07T01:41:07.541Z,100618
2017-02-07T01:42:08.174Z,100611
2017-02-07T01:43:07.632Z,100612
2017-02-07T01:44:08.270Z,100607
2017-02-07T01:45:08.254Z,100605
2017-02-07T01:46:09.213Z,100606
2017-02-07T01:47:08.350Z,100596
2017-02-07T01:48:08.331Z,100603
2017-02-07T01:49:08.533Z,100603
2017-02-07T01:50:08.582Z,100599
2017-02-07T01:51:08.531Z,100600
2017-02-07T01:52:08.275Z,100600
2017-02-07T01:53:08.050Z,100598
2017-02-07T01:54:08.154Z,100594
2017-02-07T01:55:08.171Z,100599
2017-02-07T01:56:08.766Z,100602
2017-02-07T01:57:08.808Z,100599
2017-02-07T01:58:08.601Z,100592
2017-02-07T01:59:08.930Z,100599
2017-02-07T02:00:08.966Z,100587
2017-02-07T02:01:08.992Z,100597
2017-02-07T02:02:08.510Z,100596
2017-02-07T02:03:08.537Z,100600
2017-02-07T02:04:09.366Z,100596
2017-02-07T02:05:09.166Z,100598
2017-02-07T02:06:09.271Z,100597
2017-02-07T02:07:09.291Z,100599
2017-02-07T02:08:08.771Z,100606
2017-02-07T02:09:08.839Z,100607
2017-02-07T02:10:09.705Z,100598
2017-02-07T02:11:09.521Z,100594
2017-02-07T02:12:09.043Z,100594
2017-02-07T02:13:09.612Z,100596
2017-02-07T02:14:09.153Z,100596
2017-02-07T02:15:09.149Z,100596
2017-02-07T02:16:10.063Z,100592
2017-02-07T02:17:09.358Z,100598
2017-02-07T02:18:09.370Z,100595
2017-02-07T02:19:09.965Z,100597
2017-02-07T02:20:10.043Z,100596
2017-02-07T02:21:10.059Z,100588
2017-02-07T02:22:10.378Z,100591
2017-02-07T02:23:09.515Z,100588
2017-02-07T02:24:09.574Z,100588
2017-02-07T02:25:09.580Z,100585
2017-02-07T02:26:10.224Z,100588
2017-02-07T02:27:10.252Z,100582
2017-02-07T02:28:10.655Z,100580
2017-02-07T02:29:09.792Z,100578
2017-02-07T02:30:09.867Z,100574
2017-02-07T02:31:09.934Z,100572
2017-02-07T02:32:10.516Z,100563
2017-02-07T02:33:10.568Z,100557
2017-02-07T02:34:11.723Z,100557
2017-02-07T02:35:10.242Z,100566
2017-02-07T02:36:10.841Z,100563
2017-02-07T02:37:10.873Z,100564
2017-02-07T02:38:10.964Z,100576
2017-02-07T02:39:10.997Z,100567
2017-02-07T02:40:10.788Z,100569
2017-02-07T02:41:10.590Z,100571
2017-02-07T02:42:11.167Z,100569
2017-02-07T02:43:11.278Z,100563
2017-02-07T02:44:11.298Z,100564
2017-02-07T02:45:11.354Z,100564
2017-02-07T02:46:11.670Z,100566
2017-02-07T02:47:11.441Z,100566
2017-02-07T02:48:10.933Z,100567
2017-02-07T02:49:11.545Z,100567
2017-02-07T02:50:11.600Z,100563
2017-02-07T02:51:11.110Z,100558
2017-02-07T02:52:11.988Z,100561
2017-02-07T02:53:11.751Z,100560
2017-02-07T02:54:11.796Z,100561
2017-02-07T02:55:11.285Z,100559
2017-02-07T02:56:11.880Z,100561
2017-02-07T02:57:11.874Z,100557
2017-02-07T02:58:12.220Z,100559
2017-02-07T02:59:11.990Z,100562
2017-02-07T03:00:11.491Z,100562
2017-02-07T03:01:11.568Z,100563
2017-02-07T03:02:12.148Z,100562
2017-02-07T03:03:11.615Z,100563
2017-02-07T03:04:12.043Z,100565
2017-02-07T03:05:11.761Z,100560
2017-02-07T03:06:11.830Z,100560
2017-02-07T03:07:11.882Z,100559
2017-02-07T03:08:12.405Z,100561
2017-02-07T03:09:12.503Z,100552
2017-02-07T03:10:12.828Z,100551
2017-02-07T03:11:12.601Z,100557
2017-02-07T03:12:12.616Z,100559
2017-02-07T03:13:12.871Z,100556
2017-02-07T03:14:12.218Z,100557
2017-02-07T03:15:12.780Z,100555
2017-02-07T03:16:12.550Z,100555
2017-02-07T03:17:12.231Z,100550
2017-02-07T03:18:12.305Z,100550
2017-02-07T03:19:12.925Z,100547
2017-02-07T03:20:12.941Z,100550
2017-02-07T03:21:12.489Z,100551
2017-02-07T03:22:13.329Z,100550
2017-02-07T03:23:12.567Z,100549
2017-02-07T03:24:13.220Z,100554
2017-02-07T03:25:12.673Z,100556
2017-02-07T03:26:13.281Z,100550
2017-02-07T03:27:13.329Z,100551
2017-02-07T03:28:13.102Z,100551
2017-02-07T03:29:12.907Z,100549
2017-02-07T03:30:13.466Z,100546
2017-02-07T03:31:13.031Z,100541
2017-02-07T03:32:13.135Z,100538
2017-02-07T03:33:13.636Z,100542
2017-02-07T03:34:13.417Z,100540
2017-02-07T03:35:13.244Z,100534
2017-02-07T03:36:13.274Z,100538
2017-02-07T03:37:13.299Z,100535
2017-02-07T03:38:13.354Z,100536
2017-02-07T03:39:13.379Z,100536
2017-02-07T03:40:14.221Z,100531
2017-02-07T03:41:13.501Z,100533
2017-02-07T03:42:13.574Z,100532
2017-02-07T03:43:14.141Z,100533
2017-02-07T03:44:13.710Z,100534
2017-02-07T03:45:14.245Z,100529
2017-02-07T03:46:14.084Z,100529
2017-02-07T03:47:14.457Z,100522
2017-02-07T03:48:14.436Z,100523
2017-02-07T03:49:13.982Z,100521
2017-02-07T03:50:13.917Z,100521
2017-02-07T03:51:14.599Z,100529
2017-02-07T03:52:14.912Z,100517
2017-02-07T03:53:14.704Z,100523
2017-02-07T03:54:14.205Z,100513
2017-02-07T03:55:14.788Z,100514
2017-02-07T03:56:14.868Z,100515
2017-02-07T03:57:14.399Z,100516
2017-02-07T03:58:15.299Z,100514
2017-02-07T03:59:14.963Z,100516
2017-02-07T04:00:14.957Z,100509
2017-02-07T04:01:15.054Z,100514
2017-02-07T04:02:15.055Z,100512
2017-02-07T04:03:15.081Z,100509
2017-02-07T04:04:15.384Z,100499
2017-02-07T04:05:15.184Z,100504
2017-02-07T04:06:15.202Z,100497
2017-02-07T04:07:14.735Z,100502
2017-02-07T04:08:14.772Z,100495
2017-02-07T04:09:14.697Z,100497
2017-02-07T04:10:15.096Z,100493
2017-02-07T04:11:15.352Z,100499
2017-02-07T04:12:14.928Z,100498
2017-02-07T04:13:15.429Z,100502
2017-02-07T04:14:14.940Z,100498
2017-02-07T04:15:15.063Z,100501
2017-02-07T04:16:15.866Z,100499
2017-02-07T04:17:15.603Z,100503
2017-02-07T04:18:15.665Z,100502
2017-02-07T04:19:15.199Z,100505
2017-02-07T04:20:15.736Z,100507
2017-02-07T04:21:15.222Z,100508
2017-02-07T04:22:16.147Z,100511
2017-02-07T04:23:15.965Z,100515
2017-02-07T04:24:16.036Z,100510
2017-02-07T04:25:16.056Z,100513
2017-02-07T04:26:15.534Z,100515
2017-02-07T04:27:15.514Z,100511
2017-02-07T04:28:15.814Z,100516
2017-02-07T04:29:15.597Z,100512
2017-02-07T04:30:15.684Z,100514
2017-02-07T04:31:16.232Z,100516
2017-02-07T04:32:15.722Z,100515
2017-02-07T04:33:16.302Z,100511
2017-02-07T04:34:16.098Z,100509
2017-02-07T04:35:16.361Z,100511
2017-02-07T04:36:15.874Z,100508
2017-02-07T04:37:15.931Z,100502
2017-02-07T04:38:16.517Z,100506
2017-02-07T04:39:15.978Z,100502
2017-02-07T04:40:16.883Z,100501
2017-02-07T04:41:16.576Z,100501
2017-02-07T04:42:16.696Z,100497
2017-02-07T04:43:16.200Z,100495
2017-02-07T04:44:16.212Z,100496
2017-02-07T04:45:16.825Z,100497
2017-02-07T04:46:16.615Z,100486
2017-02-07T04:47:16.392Z,100489
2017-02-07T04:48:17.008Z,100483
2017-02-07T04:49:16.539Z,100481
2017-02-07T04:50:17.095Z,100491
2017-02-07T04:51:16.559Z,100490
2017-02-07T04:52:16.947Z,100488
2017-02-07T04:53:16.696Z,100490
2017-02-07T04:54:17.357Z,100486
2017-02-07T04:55:17.334Z,100485
2017-02-07T04:56:16.939Z,100488
2017-02-07T04:57:17.525Z,100480
2017-02-07T04:58:17.294Z,100485
2017-02-07T04:59:17.550Z,100485
2017-02-07T05:00:17.617Z,100489
2017-02-07T05:01:17.680Z,100487
2017-02-07T05:02:17.736Z,100489
2017-02-07T05:03:17.196Z,100482
2017-02-07T05:04:17.551Z,100487
2017-02-07T05:05:17.815Z,100488
2017-02-07T05:06:17.888Z,100489
2017-02-07T05:07:17.379Z,100487
2017-02-07T05:08:17.429Z,100490
2017-02-07T05:09:17.425Z,100492
2017-02-07T05:10:17.842Z,100491
2017-02-07T05:11:18.083Z,100482
2017-02-07T05:12:17.575Z,100483
2017-02-07T05:13:18.135Z,100480
2017-02-07T05:14:17.604Z,100485
2017-02-07T05:15:18.230Z,100488
2017-02-07T05:16:18.161Z,100487
2017-02-07T05:17:18.373Z,100486
2017-02-07T05:18:18.383Z,100480
2017-02-07T05:19:17.905Z,100484
2017-02-07T05:20:17.985Z,100481
2017-02-07T05:21:18.579Z,100481
2017-02-07T05:22:18.953Z,100482
2017-02-07T05:23:18.677Z,100480
2017-02-07T05:24:18.657Z,100481
2017-02-07T05:25:18.743Z,100484
2017-02-07T05:26:18.234Z,100479
2017-02-07T05:27:18.775Z,100479
2017-02-07T05:28:18.676Z,100477
2017-02-07T05:29:18.874Z,100482
2017-02-07T05:30:18.854Z,100481
2017-02-07T05:31:18.397Z,100479
2017-02-07T05:32:19.002Z,100481
2017-02-07T05:33:18.486Z,100474
2017-02-07T05:34:19.307Z,100480
2017-02-07T05:35:19.078Z,100479
2017-02-07T05:36:19.165Z,100479
2017-02-07T05:37:19.267Z,100477
2017-02-07T05:38:19.324Z,100477
2017-02-07T05:39:19.324Z,100476
2017-02-07T05:40:19.125Z,100479
2017-02-07T05:41:19.504Z,100476
2017-02-07T05:42:19.473Z,100473
2017-02-07T05:43:19.596Z,100474
2017-02-07T05:44:19.023Z,100476
2017-02-07T05:45:19.123Z,100473
2017-02-07T05:46:19.957Z,100477
2017-02-07T05:47:19.799Z,100477
2017-02-07T05:48:19.271Z,100477
2017-02-07T05:49:19.829Z,100482
2017-02-07T05:50:19.875Z,100479
2017-02-07T05:51:19.874Z,100482
2017-02-07T05:52:19.636Z,100485
2017-02-07T05:53:19.431Z,100486
2017-02-07T05:54:20.104Z,100480
2017-02-07T05:55:19.560Z,100479
2017-02-07T05:56:20.195Z,100485
2017-02-07T05:57:19.730Z,100486
2017-02-07T05:58:20.570Z,100484
2017-02-07T05:59:20.280Z,100483
2017-02-07T06:00:19.827Z,100484
2017-02-07T06:01:20.453Z,100483
2017-02-07T06:02:19.853Z,100483
2017-02-07T06:03:19.931Z,100478
2017-02-07T06:04:20.311Z,100477
2017-02-07T06:05:20.109Z,100474
2017-02-07T06:06:20.705Z,100475
2017-02-07T06:07:20.785Z,100477
2017-02-07T06:08:20.907Z,100473
2017-02-07T06:09:20.930Z,100466
2017-02-07T06:10:21.379Z,100479
2017-02-07T06:11:21.076Z,100476
2017-02-07T06:12:21.186Z,100476
2017-02-07T06:13:20.690Z,100476
2017-02-07T06:14:21.258Z,100475
2017-02-07T06:15:20.715Z,100474
2017-02-07T06:16:21.086Z,100475
2017-02-07T06:17:20.820Z,100475
2017-02-07T06:18:21.398Z,100472
2017-02-07T06:19:20.842Z,100472
2017-02-07T06:20:20.952Z,100474
2017-02-07T06:21:21.525Z,100474
2017-02-07T06:22:21.381Z,100473
2017-02-07T06:23:21.663Z,100474
2017-02-07T06:24:21.700Z,100472
2017-02-07T06:25:21.728Z,100472
2017-02-07T06:26:21.807Z,100471
2017-02-07T06:27:21.866Z,100473
2017-02-07T06:28:22.230Z,100471
2017-02-07T06:29:21.493Z,100470
2017-02-07T06:30:22.077Z,100469
2017-02-07T06:31:21.538Z,100472
2017-02-07T06:32:22.121Z,100467
2017-02-07T06:33:22.147Z,100469
2017-02-07T06:34:22.553Z,100468
2017-02-07T06:35:21.778Z,100471
2017-02-07T06:36:21.791Z,100470
2017-02-07T06:37:21.914Z,100470
2017-02-07T06:38:22.409Z,100469
2017-02-07T06:39:22.508Z,100472
2017-02-07T06:40:22.817Z,100473
2017-02-07T06:41:22.097Z,100474
2017-02-07T06:42:22.112Z,100468
2017-02-07T06:43:22.201Z,100473
2017-02-07T06:44:22.218Z,100464
2017-02-07T06:45:22.238Z,100476
2017-02-07T06:46:23.142Z,100478
2017-02-07T06:47:22.979Z,100480
2017-02-07T06:48:23.079Z,100482
2017-02-07T06:49:23.049Z,100480
2017-02-07T06:50:23.112Z,100474
2017-02-07T06:51:23.250Z,100478
2017-02-07T06:52:22.969Z,100475
2017-02-07T06:53:23.219Z,100479
2017-02-07T06:54:22.737Z,100474
2017-02-07T06:55:23.305Z,100473
2017-02-07T06:56:23.393Z,100481
2017-02-07T06:57:23.635Z,100475
2017-02-07T06:58:23.790Z,100472
2017-02-07T06:59:23.027Z,100478
2017-02-07T07:00:23.544Z,100474
2017-02-07T07:01:23.073Z,100479
2017-02-07T07:02:23.205Z,100476
2017-02-07T07:03:23.257Z,100483
2017-02-07T07:04:24.084Z,100483
2017-02-07T07:05:23.417Z,100485
2017-02-07T07:06:23.379Z,100482
2017-02-07T07:07:23.986Z,100477
2017-02-07T07:08:23.463Z,100474
2017-02-07T07:09:23.430Z,100482
2017-02-07T07:10:24.274Z,100475
2017-02-07T07:11:24.042Z,100484
2017-02-07T07:12:23.565Z,100478
2017-02-07T07:13:23.664Z,100476
2017-02-07T07:14:23.696Z,100485
2017-02-07T07:15:23.818Z,100482
2017-02-07T07:16:24.063Z,100484
2017-02-07T07:17:23.883Z,100487
2017-02-07T07:18:24.478Z,100485
2017-02-07T07:19:24.536Z,100482
2017-02-07T07:20:24.673Z,100487
2017-02-07T07:21:24.147Z,100482
2017-02-07T07:22:24.497Z,100486
2017-02-07T07:23:24.215Z,100480
2017-02-07T07:24:25.149Z,100485
2017-02-07T07:25:24.825Z,100482
2017-02-07T07:26:25.142Z,100484
2017-02-07T07:27:24.836Z,100486
2017-02-07T07:28:25.197Z,100481
2017-02-07T07:29:25.027Z,100481
2017-02-07T07:30:24.550Z,100480
2017-02-07T07:31:25.214Z,100475
2017-02-07T07:32:25.244Z,100482
2017-02-07T07:33:24.876Z,100480
2017-02-07T07:34:25.075Z,100479
2017-02-07T07:35:25.348Z,100481
2017-02-07T07:36:25.551Z,100484
2017-02-07T07:37:24.951Z,100480
2017-02-07T07:38:25.816Z,100481
2017-02-07T07:39:25.595Z,100479
2017-02-07T07:40:27.363Z,100479
2017-02-07T07:41:25.818Z,100473
2017-02-07T07:42:26.031Z,100481
2017-02-07T07:43:25.787Z,100475
2017-02-07T07:44:25.833Z,100482
2017-02-07T07:45:25.239Z,100480
2017-02-07T07:46:26.166Z,100481
2017-02-07T07:47:25.414Z,100475
2017-02-07T07:48:25.532Z,100469
2017-02-07T07:49:26.089Z,100473
2017-02-07T07:50:26.162Z,100475
2017-02-07T07:51:26.213Z,100472
2017-02-07T07:52:26.515Z,100478
2017-02-07T07:53:26.320Z,100478
2017-02-07T07:54:25.832Z,100478
2017-02-07T07:55:26.388Z,100472
2017-02-07T07:56:25.930Z,100482
2017-02-07T07:57:26.455Z,100483
2017-02-07T07:58:28.615Z,100476
2017-02-07T07:59:26.123Z,100478
2017-02-07T08:00:26.695Z,100479
2017-02-07T08:01:26.216Z,100481
2017-02-07T08:02:26.252Z,100470
2017-02-07T08:03:26.780Z,100477
2017-02-07T08:04:26.548Z,100474
2017-02-07T08:05:30.302Z,100477
2017-02-07T08:06:26.917Z,100474
2017-02-07T08:07:26.429Z,100470
2017-02-07T08:08:26.427Z,100471
2017-02-07T08:09:27.067Z,100472
2017-02-07T08:10:27.431Z,100472
2017-02-07T08:11:26.675Z,100471
2017-02-07T08:12:27.229Z,100471
2017-02-07T08:13:26.802Z,100470
2017-02-07T08:14:27.441Z,100474
2017-02-07T08:15:27.429Z,100468
2017-02-07T08:16:27.175Z,100473
2017-02-07T08:17:27.581Z,100470
2017-02-07T08:18:27.601Z,100473
2017-02-07T08:19:27.724Z,100474
2017-02-07T08:20:27.115Z,100468
2017-02-07T08:21:29.225Z,100468
2017-02-07T08:22:28.041Z,100466
2017-02-07T08:23:27.224Z,100465
2017-02-07T08:24:27.266Z,100466
2017-02-07T08:25:27.879Z,100466
2017-02-07T08:26:28.176Z,100467
2017-02-07T08:27:28.015Z,100465
2017-02-07T08:28:28.234Z,100466
2017-02-07T08:29:27.485Z,100460
2017-02-07T08:30:27.496Z,100461
2017-02-07T08:31:27.612Z,100459
2017-02-07T08:32:27.702Z,100462
2017-02-07T08:33:28.331Z,100456
2017-02-07T08:34:28.573Z,100462
2017-02-07T08:35:28.356Z,100463
2017-02-07T08:36:28.387Z,100461
2017-02-07T08:37:28.518Z,100463
2017-02-07T08:38:28.581Z,100462
2017-02-07T08:39:28.483Z,100459
2017-02-07T08:40:28.916Z,100460
2017-02-07T08:41:28.507Z,100458
2017-02-07T08:42:28.539Z,100462
2017-02-07T08:43:28.162Z,100457
2017-02-07T08:44:28.264Z,100462
2017-02-07T08:45:29.400Z,100461
2017-02-07T08:46:29.108Z,100458
2017-02-07T08:47:28.329Z,100453
2017-02-07T08:48:28.384Z,100451
2017-02-07T08:49:28.407Z,100458
2017-02-07T08:50:28.579Z,100456
2017-02-07T08:51:28.977Z,100460
2017-02-07T08:52:28.910Z,100458
2017-02-07T08:53:28.671Z,100464
2017-02-07T08:54:29.261Z,100457
2017-02-07T08:55:28.849Z,100461
2017-02-07T08:56:29.468Z,100453
2017-02-07T08:57:29.550Z,100455
2017-02-07T08:58:29.239Z,100455
2017-02-07T08:59:29.137Z,100459
2017-02-07T09:00:29.686Z,100458
2017-02-07T09:01:29.091Z,100456
2017-02-07T09:02:29.673Z,100458
2017-02-07T09:03:29.761Z,100465
2017-02-07T09:04:29.538Z,100463
2017-02-07T09:05:29.355Z,100462
2017-02-07T09:06:29.976Z,100460
2017-02-07T09:07:30.806Z,100462
2017-02-07T09:08:29.439Z,100456
2017-02-07T09:09:29.543Z,100451
2017-02-07T09:10:30.466Z,100458
2017-02-07T09:11:29.600Z,100456
2017-02-07T09:12:30.193Z,100457
2017-02-07T09:13:29.730Z,100453
2017-02-07T09:14:30.244Z,100455
2017-02-07T09:15:29.747Z,100456
2017-02-07T09:16:32.698Z,100455
2017-02-07T09:17:31.163Z,100457
2017-02-07T09:18:30.558Z,100459
2017-02-07T09:19:29.950Z,100459
2017-02-07T09:20:30.045Z,100460
2017-02-07T09:21:30.637Z,100457
2017-02-07T09:22:32.085Z,100452
2017-02-07T09:23:30.681Z,100456
2017-02-07T09:24:30.164Z,100456
2017-02-07T09:25:30.282Z,100460
2017-02-07T09:26:30.350Z,100453
2017-02-07T09:27:30.918Z,100453
2017-02-07T09:28:31.264Z,100451
2017-02-07T09:29:31.548Z,100453
2017-02-07T09:30:30.476Z,100453
2017-02-07T09:31:31.458Z,100455
2017-02-07T09:32:31.182Z,100453
2017-02-07T09:33:31.266Z,100462
2017-02-07T09:34:30.873Z,100450
2017-02-07T09:35:31.362Z,100456
2017-02-07T09:36:30.791Z,100459
2017-02-07T09:37:31.191Z,100461
2017-02-07T09:38:30.816Z,100461
2017-02-07T09:39:30.886Z,100461
2017-02-07T09:40:31.130Z,100456
2017-02-07T09:41:30.907Z,100461
2017-02-07T09:42:30.951Z,100467
2017-02-07T09:43:31.079Z,100466
2017-02-07T09:44:31.128Z,100465
2017-02-07T09:45:31.090Z,100466
2017-02-07T09:46:32.041Z,100468
2017-02-07T09:47:31.276Z,100467
2017-02-07T09:48:31.795Z,100466
2017-02-07T09:49:31.373Z,100460
2017-02-07T09:50:32.629Z,100467
2017-02-07T09:51:32.061Z,100469
2017-02-07T09:52:32.391Z,100466
2017-02-07T09:53:31.590Z,100469
2017-02-07T09:54:31.635Z,100469
2017-02-07T09:55:31.683Z,100468
2017-02-07T09:56:32.243Z,100472
2017-02-07T09:57:32.313Z,100473
2017-02-07T09:58:32.116Z,100469
2017-02-07T09:59:32.365Z,100472
2017-02-07T10:00:32.363Z,100475
2017-02-07T10:01:32.478Z,100474
2017-02-07T10:02:32.432Z,100474
2017-02-07T10:03:31.981Z,100476
2017-02-07T10:04:32.921Z,100465
2017-02-07T10:05:32.617Z,100469
2017-02-07T10:06:32.686Z,100469
2017-02-07T10:07:32.182Z,100470
2017-02-07T10:08:32.191Z,100469
2017-02-07T10:09:32.332Z,100468
2017-02-07T10:10:33.110Z,100470
2017-02-07T10:11:32.855Z,100470
2017-02-07T10:12:33.069Z,100471
2017-02-07T10:13:32.442Z,100476
2017-02-07T10:14:32.528Z,100474
2017-02-07T10:15:33.063Z,100473
2017-02-07T10:16:33.348Z,100466
2017-02-07T10:17:32.560Z,100469
2017-02-07T10:18:33.096Z,100467
2017-02-07T10:19:33.108Z,100469
2017-02-07T10:20:33.119Z,100463
2017-02-07T10:21:32.622Z,100468
2017-02-07T10:22:33.520Z,100469
2017-02-07T10:23:33.260Z,100464
2017-02-07T10:24:33.337Z,100466
2017-02-07T10:25:32.831Z,100468
2017-02-07T10:26:33.514Z,100461
2017-02-07T10:27:32.946Z,100461
2017-02-07T10:28:33.335Z,100463
2017-02-07T10:29:33.119Z,100459
2017-02-07T10:30:33.687Z,100453
2017-02-07T10:31:33.755Z,100459
2017-02-07T10:32:33.773Z,100454
2017-02-07T10:33:33.737Z,100458
2017-02-07T10:34:34.047Z,100460
2017-02-07T10:35:33.306Z,100465
2017-02-07T10:36:33.315Z,100464
2017-02-07T10:37:33.312Z,100462
2017-02-07T10:38:33.369Z,100461
2017-02-07T10:39:33.975Z,100457
2017-02-07T10:40:33.830Z,100462
2017-02-07T10:41:34.148Z,100462
2017-02-07T10:42:34.134Z,100465
2017-02-07T10:43:33.666Z,100458
2017-02-07T10:44:33.834Z,100462
2017-02-07T10:45:34.363Z,100462
2017-02-07T10:46:34.101Z,100453
2017-02-07T10:47:33.898Z,100462
2017-02-07T10:48:34.556Z,100463
2017-02-07T10:49:34.130Z,100461
2017-02-07T10:50:34.147Z,100458
2017-02-07T10:51:34.283Z,100463
2017-02-07T10:52:34.597Z,100463
2017-02-07T10:53:36.117Z,100456
2017-02-07T10:54:34.449Z,100461
2017-02-07T10:55:34.588Z,100460
2017-02-07T10:56:35.160Z,100462
2017-02-07T10:57:35.120Z,100461
2017-02-07T10:58:35.473Z,100457
2017-02-07T10:59:34.709Z,100452
2017-02-07T11:00:34.847Z,100450
2017-02-07T11:01:34.875Z,100448
2017-02-07T11:02:34.893Z,100451
2017-02-07T11:03:35.468Z,100455
2017-02-07T11:04:35.788Z,100448
2017-02-07T11:05:34.943Z,100456
2017-02-07T11:06:35.617Z,100455
2017-02-07T11:07:35.065Z,100455
2017-02-07T11:08:35.060Z,100452
2017-02-07T11:09:35.620Z,100452
2017-02-07T11:10:35.937Z,100451
2017-02-07T11:11:35.121Z,100442
2017-02-07T11:12:35.733Z,100446
2017-02-07T11:13:35.189Z,100442
2017-02-07T11:14:35.780Z,100439
2017-02-07T11:15:35.874Z,100442
2017-02-07T11:16:36.195Z,100439
2017-02-07T11:17:35.424Z,100448
2017-02-07T11:18:35.972Z,100438
2017-02-07T11:19:36.113Z,100441
2017-02-07T11:20:36.146Z,100447
2017-02-07T11:21:36.109Z,100444
2017-02-07T11:22:35.853Z,100444
2017-02-07T11:23:35.611Z,100448
2017-02-07T11:24:35.650Z,100442
2017-02-07T11:25:35.632Z,100441
2017-02-07T11:26:35.681Z,100440
2017-02-07T11:27:35.754Z,100443
2017-02-07T11:28:36.565Z,100443
2017-02-07T11:29:36.892Z,100440
2017-02-07T11:30:36.399Z,100437
2017-02-07T11:31:36.472Z,100439
2017-02-07T11:32:36.049Z,100439
2017-02-07T11:33:36.585Z,100439
2017-02-07T11:34:36.117Z,100434
2017-02-07T11:35:36.141Z,100436
2017-02-07T11:36:36.206Z,100439
2017-02-07T11:37:36.750Z,100431
2017-02-07T11:38:36.263Z,100434
2017-02-07T11:39:36.886Z,100436
2017-02-07T11:40:36.996Z,100439
2017-02-07T11:41:36.509Z,100438
2017-02-07T11:42:37.085Z,100427
2017-02-07T11:43:36.673Z,100436
2017-02-07T11:44:36.701Z,100434
2017-02-07T11:45:37.297Z,100442
2017-02-07T11:46:37.860Z,100430
2017-02-07T11:47:37.388Z,100434
2017-02-07T11:48:36.860Z,100431
2017-02-07T11:49:36.971Z,100435
2017-02-07T11:50:37.457Z,100428
2017-02-07T11:51:37.034Z,100426
2017-02-07T11:52:37.561Z,100426
2017-02-07T11:53:37.628Z,100430
2017-02-07T11:54:37.117Z,100430
2017-02-07T11:55:37.097Z,100433
2017-02-07T11:56:37.692Z,100429
2017-02-07T11:57:37.755Z,100423
2017-02-07T11:58:37.875Z,100431
2017-02-07T11:59:37.355Z,100429
2017-02-07T12:00:37.421Z,100425
2017-02-07T12:01:37.538Z,100424
2017-02-07T12:02:38.800Z,100426
2017-02-07T12:03:38.162Z,100426
2017-02-07T12:04:37.667Z,100422
2017-02-07T12:05:37.760Z,100423
2017-02-07T12:06:37.825Z,100430
2017-02-07T12:07:37.980Z,100431
2017-02-07T12:08:38.012Z,100430
2017-02-07T12:09:39.679Z,100431
2017-02-07T12:10:38.620Z,100430
2017-02-07T12:11:38.674Z,100429
2017-02-07T12:12:38.250Z,100419
2017-02-07T12:13:38.817Z,100417
2017-02-07T12:14:38.869Z,100423
2017-02-07T12:15:38.342Z,100423
2017-02-07T12:16:38.900Z,100423
2017-02-07T12:17:38.386Z,100423
2017-02-07T12:18:39.160Z,100426
2017-02-07T12:19:38.411Z,100420
2017-02-07T12:20:38.996Z,100426
2017-02-07T12:21:38.994Z,100423
2017-02-07T12:22:39.057Z,100417
2017-02-07T12:23:38.638Z,100426
2017-02-07T12:24:38.614Z,100424
2017-02-07T12:25:39.231Z,100424
2017-02-07T12:26:39.392Z,100423
2017-02-07T12:27:38.831Z,100422
2017-02-07T12:28:38.941Z,100421
2017-02-07T12:29:39.526Z,100419
2017-02-07T12:30:39.066Z,100420